Latest Coastal Weather Observations for Darwin Airport

IDD60701

Issued at 9:11 am CST Sunday 26 March 2017 (issued every 10 minutes, with the page automatically refreshed every 10 minutes)

About coastal observations | Map of coastal stations | Coastal observations for NT | Marine services | Other Formats
Station Details ID: 014015 Name: DARWIN AIRPORT Lat: -12.42 Lon: 130.89 Height: 30.4 m
Data from the previous 72 hours. | See also: Recent months at Darwin Airport
Date/Time
CST
Temp
°C
Wind Pressure Rain since
9am
mm
Weather Cloud Vis
km
Sea
Height
m
Swell
Dir  Spd
kts
Gust
kts
hPa Trend Height
m
Period
s
Dir
26/09:00am 27.6 NE 4 5 1009.1 F 17.4 Distant precip. Mostly cloudy 30 - - - -
26/08:30am 27.5 ENE 4 6 1008.7 - 17.4 - Mostly clear 10 - - - -
26/08:00am 26.4 E 4 5 1008.7 - 17.4 - Mostly clear 10 - - - -
26/07:30am 25.6 E 5 5 1008.6 - 17.4 - Mostly clear 10 - - - -
26/07:00am 25.5 E 2 4 1008.4 - 17.4 - Mostly clear 10 - - - -
26/06:30am 25.5 CALM 0 0 1008.0 - 15.8 - Mostly clear 10 - - - -
26/06:00am 25.2 E 3 4 1007.7 R 15.6 Showers Partly cloudy 25 - - - -
26/05:30am 25.0 E 5 7 1007.5 - 15.6 - Mostly clear 10 - - - -
26/05:00am 25.0 ESE 4 5 1007.4 - 15.6 - Mostly clear 10 - - - -
26/04:30am 25.1 SE 3 4 1007.4 - 15.6 - Mostly clear 10 - - - -
26/04:00am 25.2 ESE 2 3 1007.2 - 15.6 - Mostly clear 10 - - - -
26/03:30am 25.3 E 3 3 1007.3 - 15.6 - Mostly clear 10 - - - -
26/03:00am 25.4 E 3 4 1007.3 F 15.6 Fine Mostly clear 30 - - - -
26/02:30am 25.5 ENE 4 4 1007.4 - 15.6 - Mostly clear 10 - - - -
26/02:00am 25.5 ENE 4 5 1007.6 - 15.6 - Mostly clear 10 - - - -
26/01:30am 25.5 E 3 4 1007.7 - 15.6 - Mostly clear 10 - - - -
26/01:00am 25.5 ENE 3 4 1008.3 - 15.6 - Mostly clear 10 - - - -
26/12:30am 25.7 ENE 3 4 1008.7 - 15.6 - Mostly clear 10 - - - -
26/12:00am 25.9 NE 3 3 1009.0 R 15.6 Fine Mostly cloudy 30 - - - -
 
Date/Time
CST
Temp
°C
Wind Pressure Rain since
9am
mm
Weather Cloud Vis
km
Sea
Height
m
Swell
Dir  Spd
kts
Gust
kts
hPa Trend Height
m
Period
s
Dir
25/11:30pm 26.1 E 3 4 1009.3 - 15.6 - Mostly clear 10 - - - -
25/11:00pm 26.1 E 4 5 1009.1 - 15.6 - Mostly clear 10 - - - -
25/10:30pm 26.0 ESE 5 7 1008.8 - 15.6 - Mostly clear 10 - - - -
25/10:00pm 26.1 ENE 2 5 1008.6 - 15.6 - Mostly clear 10 - - - -
25/09:30pm 26.3 CALM 0 0 1008.4 - 15.6 - Mostly clear 10 - - - -
25/09:00pm 26.4 NE 2 3 1008.0 R 15.6 Fine Mostly cloudy 30 - - - -
25/08:30pm 26.4 E 2 2 1007.6 - 15.6 - Mostly clear 10 - - - -
25/08:00pm 26.4 CALM 0 0 1007.2 - 15.6 - Mostly clear 10 - - - -
25/07:30pm 26.8 CALM 0 0 1006.8 - 15.6 - Mostly clear 10 - - - -
25/07:00pm 27.1 NW 4 6 1006.2 - 15.6 - Mostly clear 10 - - - -
25/06:30pm 27.4 WNW 5 8 1005.8 - 15.6 - Mostly clear 10 - - - -
25/06:00pm 27.5 NW 1 2 1005.6 F 15.6 Distant precip. Mostly cloudy 30 - - - -
25/05:30pm 27.3 NNE 1 2 1005.6 - 15.6 - Mostly clear 10 - - - -
25/05:00pm 26.8 CALM 0 0 1005.4 - 15.6 - Mostly clear 10 - - - -
25/04:50pm 26.7 NNW 2 4 1005.5 - 15.6 Showers Mostly clear 10 - - - -
25/04:43pm 27.0 WNW 4 6 1005.6 - 14.2 Showers Mostly clear 2 - - - -
25/04:30pm 27.8 WNW 6 7 1005.5 - 13.8 - Mostly clear 10 - - - -
25/04:00pm 28.1 WNW 5 6 1005.7 - 13.8 - Mostly clear 10 - - - -
25/03:53pm 28.1 WNW 5 6 1005.7 - 13.8 - Partly cloudy 10 - - - -
25/03:30pm 27.9 W 5 7 1005.8 - 13.8 - Mostly clear 10 - - - -
25/03:00pm 27.7 SW 2 5 1006.0 R 13.8 Rain Cloudy 20 - - - -
25/02:30pm 27.3 CALM 0 0 1006.1 - 13.8 - Mostly clear 10 - - - -
25/02:00pm 27.0 ENE 2 3 1006.6 - 13.8 Showers Partly cloudy 10 - - - -
25/01:30pm 26.1 NNE 2 3 1006.6 - 13.8 - Mostly clear 10 - - - -
25/01:08pm 25.6 NNE 5 8 1007.8 - 13.6 Rain Mostly clear 10 - - - -
25/01:00pm 26.0 N 8 12 1008.1 - 9.4 Showers Mostly clear 1 - - - -
25/12:41pm 27.9 NNW 8 11 1007.7 - 1.0 Showers Mostly clear 2 - - - -
25/12:30pm 29.1 NNW 9 15 1007.8 - 1.0 - Mostly clear 10 - - - -
25/12:00pm 29.6 NNW 7 9 1008.1 R 1.0 Distant precip. Cloudy 30 - - - -
25/11:30am 29.8 NNW 7 10 1008.4 - 1.0 - Mostly clear 10 - - - -
25/11:00am 28.8 N 6 8 1008.6 - 1.0 - Mostly clear 10 - - - -
25/10:30am 26.8 NE 5 8 1008.8 - 1.0 - Mostly clear 10 - - - -
25/10:22am 26.6 NNE 3 7 1008.8 - 1.0 Rain Mostly clear 10 - - - -
25/10:00am 27.3 NNW 2 4 1008.5 - 0.0 Rain Partly cloudy 8 - - - -
25/09:57am 27.8 NNW 3 4 1008.4 - 0.0 Rain Partly cloudy 6 - - - -
25/09:30am 27.6 E 5 7 1008.2 - 0.0 - Mostly clear 10 - - - -
25/09:00am 26.7 ESE 6 7 1007.9 S 17.4 Fine Mostly cloudy 30 - - - -
25/08:30am 26.4 ESE 4 5 1007.6 - 17.4 - Mostly clear 10 - - - -
25/08:00am 25.5 ESE 5 6 1006.9 - 17.4 - Mostly clear 10 - - - -
25/07:30am 24.6 ESE 5 6 1006.6 - 17.4 - Mostly clear 10 - - - -
25/07:00am 24.3 SE 4 5 1006.8 - 17.4 - Mostly clear 10 - - - -
25/06:30am 24.2 SE 4 5 1006.5 - 17.0 - Mostly clear 10 - - - -
25/06:00am 24.2 ESE 3 4 1006.3 F 17.0 Fine Mostly cloudy 30 - - - -
25/05:30am 24.1 E 4 5 1006.1 - 17.0 - Mostly clear 10 - - - -
25/05:00am 24.0 ENE 6 9 1005.7 - 17.0 - Mostly clear 10 - - - -
25/04:30am 24.7 E 13 17 1006.2 - 17.0 - Mostly clear 10 - - - -
25/04:00am 25.0 E 7 10 1006.2 - 16.6 Rain Mostly clear 10 - - - -
25/03:30am 25.0 SE 6 8 1006.6 - 16.4 - Mostly clear 10 - - - -
25/03:00am 25.1 ESE 4 5 1006.8 F 16.2 Rain Mostly cloudy 20 - - - -
25/02:30am 25.2 SE 1 3 1007.3 - 15.8 - Mostly clear 10 - - - -
25/02:00am 25.1 SSE 3 5 1007.3 - 15.4 Rain Mostly clear 10 - - - -
25/01:30am 25.3 SSE 2 4 1007.5 - 15.4 - Mostly clear 10 - - - -
25/01:00am 25.1 S 2 3 1007.8 - 15.4 - Mostly clear 10 - - - -
25/12:30am 25.1 SE 6 7 1007.7 - 15.4 - Mostly clear 10 - - - -
25/12:00am 25.3 SE 6 8 1008.1 S 15.4 Fine Mostly cloudy 30 - - - -
 
Date/Time
CST
Temp
°C
Wind Pressure Rain since
9am
mm
Weather Cloud Vis
km
Sea
Height
m
Swell
Dir  Spd
kts
Gust
kts
hPa Trend Height
m
Period
s
Dir
24/11:30pm 25.9 SE 6 9 1008.5 - 15.4 - Mostly clear 10 - - - -
24/11:00pm 26.4 SSE 7 12 1008.5 - 15.4 - Mostly clear 10 - - - -
24/10:30pm 26.5 SSE 6 9 1008.4 - 15.4 - Mostly clear 10 - - - -
24/10:00pm 26.6 SSE 3 4 1008.3 - 15.4 - Mostly clear 10 - - - -
24/09:30pm 26.6 CALM 0 0 1007.9 - 15.4 - Mostly clear 10 - - - -
24/09:00pm 26.4 CALM 0 0 1007.7 S 15.4 Lightning Mostly cloudy 30 - - - -
24/08:30pm 26.1 N 3 4 1007.1 - 15.4 - Mostly clear 10 - - - -
24/08:00pm 25.9 NNE 3 5 1006.6 - 15.4 - Mostly clear 10 - - - -
24/07:30pm 25.8 NNE 3 5 1006.0 - 15.2 - Partly cloudy 10 - - - -
24/07:25pm 25.9 N 3 5 1006.1 - 15.2 Thunder Mostly clear 10 - - - -
24/07:00pm 27.5 NNE 7 17 1006.1 - 12.6 Thunderstorm Mostly clear 10 - - - -
24/06:57pm 27.8 N 5 10 1006.0 - 12.6 Thunderstorm Mostly clear 10 - - - -
24/06:30pm 28.2 NNW 4 6 1005.6 - 12.6 - Mostly clear 10 - - - -
24/06:00pm 28.6 N 2 3 1005.8 R 12.6 Distant precip. Mostly cloudy 30 - - - -
24/05:30pm 28.3 NNE 3 4 1005.3 - 12.6 - Mostly clear 10 - - - -
24/05:00pm 28.1 S 3 4 1005.1 - 12.6 - Mostly clear 10 - - - -
24/04:30pm 27.5 SE 3 5 1004.5 - 12.6 - Mostly clear 10 - - - -
24/04:00pm 27.4 S 2 4 1005.5 - 12.6 - Mostly clear 10 - - - -
24/03:30pm 26.4 SSE 8 11 1005.6 - 12.4 - Mostly clear 8 - - - -
24/03:09pm 26.8 SSE 10 13 1006.0 - 4.2 Showers Mostly clear 2 - - - -
24/03:00pm 27.5 S 4 10 1005.7 S 0.8 Showers Mostly cloudy 12 - - - -
24/02:30pm 30.6 NW 2 4 1005.8 - 0.4 - Mostly clear 10 - - - -
24/02:00pm 28.3 NNW 8 11 1006.2 - 0.4 Showers Mostly clear 9 - - - -
24/01:50pm 29.5 WSW 5 7 1006.2 - 0.2 Showers Partly cloudy 3 - - - -
24/01:46pm 30.0 WSW 6 10 1005.9 - 0.2 Showers Partly cloudy 6 - - - -
24/01:30pm 30.7 WNW 7 11 1006.5 - 0.2 - Partly cloudy 10 - - - -
24/01:00pm 31.3 WNW 7 9 1007.2 - 0.2 - Partly cloudy 10 - - - -
24/12:30pm 31.4 WNW 9 10 1007.7 - 0.2 - Partly cloudy 10 - - - -
24/12:00pm 31.7 NE 3 5 1008.1 F 0.2 Fine Mostly cloudy 30 - - - -
24/11:30am 31.0 ENE 4 6 1008.8 - 0.2 - Partly cloudy 10 - - - -
24/11:00am 30.4 E 5 8 1009.1 - 0.2 - Partly cloudy 10 - - - -
24/10:30am 30.0 E 4 6 1009.6 - 0.2 - Partly cloudy 10 - - - -
24/10:00am 29.2 ESE 5 8 1009.5 - 0.0 - Mostly clear 10 - - - -
24/09:30am 28.6 SE 4 5 1009.5 - 0.0 - Mostly clear 10 - - - -
24/09:00am 28.0 SSE 4 6 1009.5 R 17.0 Fine Partly cloudy 30 - - - -
24/08:30am 27.2 SSE 4 5 1009.0 - 17.0 - Mostly clear 10 - - - -
24/08:00am 25.9 SE 2 4 1008.7 - 17.0 - Mostly clear 10 - - - -
24/07:30am 25.2 SE 3 4 1008.4 - 17.0 - Mostly clear 10 - - - -
24/07:00am 24.9 SE 4 5 1008.0 - 17.0 - Mostly clear 10 - - - -
24/06:30am 24.9 SE 4 4 1007.8 - 17.0 - - 10 - - - -
24/06:00am 24.8 E 4 4 1007.7 F 17.0 Recent precip. Mostly cloudy 30 - - - -
24/05:30am 25.0 SE 2 3 1007.9 - 17.0 - - 10 - - - -
24/05:00am 25.0 SSE 4 5 1007.6 - 17.0 - Mostly clear 10 - - - -
24/04:30am 25.2 SSE 3 5 1007.5 - 17.0 - Mostly clear 10 - - - -
24/04:00am 25.2 W 2 3 1007.9 - 17.0 - Mostly clear 10 - - - -
24/03:30am 24.9 SW 3 4 1008.0 - 17.0 - Mostly clear 10 - - - -
24/03:00am 25.1 ESE 4 5 1007.7 F 17.0 Fine Mostly cloudy 30 - - - -
24/02:30am 25.1 ESE 4 5 1007.6 - 17.0 - - 10 - - - -
24/02:00am 25.1 E 4 5 1008.0 - 17.0 - - 10 - - - -
24/01:30am 24.8 E 7 10 1007.9 - 17.0 - - 10 - - - -
24/01:00am 24.6 ENE 6 8 1008.3 - 17.0 - - 10 - - - -
24/12:30am 24.6 E 4 6 1008.5 - 17.0 - - 10 - - - -
24/12:00am 24.7 ESE 4 6 1009.0 F 17.0 Lightning Mostly cloudy 30 - - - -
 
Date/Time
CST
Temp
°C
Wind Pressure Rain since
9am
mm
Weather Cloud Vis
km
Sea
Height
m
Swell
Dir  Spd
kts
Gust
kts
hPa Trend Height
m
Period
s
Dir
23/11:30pm 25.0 SSE 7 11 1009.4 - 17.0 - - 10 - - - -
23/11:00pm 25.1 SSE 6 9 1009.7 - 17.0 - - 10 - - - -
23/10:30pm 25.7 SSE 9 12 1010.0 - 17.0 - - 10 - - - -
23/10:00pm 25.7 SSE 7 10 1009.7 - 17.0 - Mostly clear 10 - - - -
23/09:30pm 25.8 SE 10 15 1009.9 - 17.0 - Mostly clear 10 - - - -
23/09:00pm 26.6 SSE 4 7 1008.9 R 17.0 Lightning Mostly cloudy 30 - - - -
23/08:30pm 26.9 S 5 6 1008.5 - 17.0 - Mostly clear 10 - - - -
23/08:00pm 26.9 S 7 9 1008.4 - 17.0 - Mostly clear 10 - - - -
23/07:30pm 26.9 S 9 11 1008.0 - 17.0 - Mostly clear 10 - - - -
23/07:00pm 27.5 SW 5 7 1007.2 - 17.0 - Mostly clear 10 - - - -
23/06:30pm 28.2 WSW 7 10 1006.7 - 17.0 - Mostly clear 10 - - - -
23/06:00pm 28.8 WSW 8 11 1006.5 F 17.0 Recent precip. Mostly cloudy 30 - - - -
23/05:30pm 28.6 WSW 10 13 1006.8 - 17.0 - Mostly clear 9 - - - -
23/05:00pm 28.8 WSW 9 11 1006.2 - 17.0 - Partly cloudy 10 - - - -
23/04:30pm 29.2 W 10 14 1006.3 - 17.0 - Partly cloudy 10 - - - -
23/04:00pm 29.7 W 9 11 1006.6 - 17.0 - Mostly clear 10 - - - -
23/03:30pm 27.9 WNW 2 6 1006.4 - 17.0 - Mostly clear 10 - - - -
23/03:15pm 27.9 N 5 8 1006.7 - 14.8 Showers Partly cloudy 3 - - - -
23/03:09pm 30.0 NNW 6 8 1006.7 - 13.2 Showers Partly cloudy 5 - - - -
23/03:00pm 30.3 NNW 7 9 1006.8 F 13.2 Distant precip. Mostly cloudy 12 - - - -
23/02:30pm 31.4 WNW 3 6 1007.1 - 13.2 - Mostly clear 10 - - - -
23/02:00pm 30.7 WNW 6 8 1007.4 - 13.2 - Mostly clear 10 - - - -
23/01:30pm 30.2 WNW 6 11 1007.9 - 13.2 - Mostly clear 10 - - - -
23/01:00pm 29.1 NW 8 12 1008.5 - 13.2 - Partly cloudy 10 - - - -
23/12:30pm 30.1 WNW 9 12 1009.0 - 13.2 - Partly cloudy 10 - - - -
23/12:00pm 30.1 SSE 1 4 1009.6 F 13.2 Fine Partly cloudy 30 - - - -
23/11:30am 29.3 ESE 2 4 1009.9 - 13.2 - Mostly clear 10 - - - -
23/11:00am 28.1 SSW 3 4 1010.2 - 13.0 - Mostly clear 10 - - - -
23/10:30am 26.3 WSW 6 7 1010.8 - 13.0 - Mostly clear 10 - - - -
23/10:21am 26.0 SW 5 5 1010.9 - 13.0 Showers Mostly clear 8 - - - -
23/10:00am 25.3 WNW 5 7 1011.0 - 9.2 Showers Mostly clear 2 - - - -
23/09:57am 25.3 W 6 9 1011.0 - 7.2 Showers Mostly clear 2 - - - -
23/09:40am 25.9 NW 8 11 1011.0 - 0.2 Showers Partly cloudy 2 - - - -
23/09:34am 26.3 NW 7 11 1010.7 - 0.2 Showers Mostly clear 5 - - - -
23/09:30am 26.9 NW 6 8 1010.7 - 0.0 - Mostly clear 6 - - - -

Other Formats:

Comma delimited format used in spreadsheet applications
http://www.bom.gov.au/fwo/IDD60701/IDD60701.94120.axf

JavaScript Object Notation format (JSON) in row-major order
http://www.bom.gov.au/fwo/IDD60701/IDD60701.94120.json